Accueil
METAR-TAF:

METAR-TAF

Aéroports :

Monte Malanotte

Prato Nevoso, Italie

latitude: 44-15N, longitude: 007-48E, altitude: 1741 m

Observation

Le bulletin a été fait il y a 4 heures et 47 minutes, à 17:55 UTC
Vent 2 kt de direction variable
Température 3°C
Humidité 87%
Pression 1009 hPa
Visibilité 10 km ou plus
pas de nuages en-dessous de 1500 mètres et pas de cumulonimbus.

METAR: LIMY 201755Z VRB02KT CAVOK 03/01 Q1009 RMK FEW FEW190 VAL FOSCHIA VIS MIN 9999

Heure: 23:42 (22:42 UTC)


TAF: absent

Observations et prévisions météorologiques de plus de 4000 aéroports (messages METAR et TAF).

Les stations disponibles sont représentées par des disques jaunes et rouges sur la carte.

Passer la souris dessus pour voir le nom de la station.

Cliquer dessus pour voir les observations et prévisions météorologiques.

Pour changer de carte: cliquez sur les boutons verts avec une croix noire pour zoomer, sur le bouton vert avec un tiret pour effectuer un zoom arrière, ou sur les flèches vertes pour les cartes adjacentes.


METAR-TAF: